KDSV/DSV METAR and TAF weather

Enter ICAO airport designator
Station Type Date Time Source
KDSV METAR 2021/03/04 20:54 UTC NOAA

KDSV 042054Z AUTO 33018KT 10SM CLR M01/M12 A3003 RMK AO2 SLP184 60000 T10061117 53005


Station Type Date Time Source
KDSV Decoded METAR 2021/03/04 20:54 UTC NOAA

DANSVILLE MUNICIPAL AIRPORT, NY, United States (KDSV) 42-34N 077-43W 198M
Mar 04, 2021 - 03:54 PM EST / 2021.03.04 2054 UTC
Wind: from the NNW (330 degrees) at 21 MPH (18 KT):0
Visibility: 10 mile(s):0
Sky conditions: clear
Temperature: 30.9 F (-0.6 C)
Windchill: 17 F (-8 C):1
Dew Point: 10.9 F (-11.7 C)
Relative Humidity: 42%
Pressure (altimeter): 30.03 in. Hg (1016 hPa)
Pressure tendency: 0.01 inches (0.5 hPa) higher than three hours ago
ob: KDSV 042054Z AUTO 33018KT 10SM CLR M01/M12 A3003 RMK AO2 SLP184 60000 T10061117 53005
cycle: 21

Station Type Date Time Source
KDSV TAF UTC NOAA

Error!

Example: see airport list